Time,TemperatureF,DewpointF,PressureIn,WindDirection,WindDirectionDegrees,WindSpeedMPH,WindSpeedGustMPH,Humidity,HourlyPrecipIn,Conditions,Clouds,dailyrainin,SoftwareType,DateUTC
2013-01-27 00:01:00,21.7,18.4,30.48,West,277,0.0,0.0,87,0.00,,---,0.00,VWS V14.01,2013-01-27 05:01:00,
2013-01-27 00:16:00,21.7,18.7,30.47,West,277,0.0,1.0,88,0.00,,---,0.00,VWS V14.01,2013-01-27 05:16:00,
2013-01-27 00:31:00,22.1,19.4,30.46,West,277,3.0,3.0,89,0.00,,---,0.00,VWS V14.01,2013-01-27 05:31:00,
2013-01-27 00:46:00,22.5,19.2,30.46,West,277,1.0,5.0,87,0.00,,---,0.00,VWS V14.01,2013-01-27 05:46:00,
2013-01-27 01:01:00,22.6,19.6,30.46,West,277,1.0,4.0,88,0.00,,---,0.00,VWS V14.01,2013-01-27 06:01:00,
2013-01-27 01:16:00,22.6,19.3,30.45,West,277,0.0,2.0,87,0.00,,---,0.00,VWS V14.01,2013-01-27 06:16:00,
2013-01-27 01:31:00,22.8,19.5,30.45,West,277,1.0,4.0,87,0.00,,---,0.00,VWS V14.01,2013-01-27 06:31:00,
2013-01-27 01:46:00,22.9,19.6,30.44,SE,141,2.0,5.0,87,0.00,,---,0.00,VWS V14.01,2013-01-27 06:46:00,
2013-01-27 02:01:00,22.8,19.2,30.45,SE,132,2.0,6.0,86,0.00,,---,0.00,VWS V14.01,2013-01-27 07:01:00,
2013-01-27 02:16:00,22.5,19.0,30.45,SSE,148,0.0,5.0,86,0.00,,---,0.00,VWS V14.01,2013-01-27 07:16:00,
2013-01-27 02:31:00,22.3,18.8,30.46,SE,140,0.0,4.0,86,0.00,,---,0.00,VWS V14.01,2013-01-27 07:31:00,
2013-01-27 02:46:00,22.3,18.8,30.46,SE,140,0.0,4.0,86,0.00,,---,0.00,VWS V14.01,2013-01-27 07:46:00,
2013-01-27 03:01:00,22.4,18.9,30.46,SE,138,1.0,4.0,86,0.00,,---,0.00,VWS V14.01,2013-01-27 08:01:00,
2013-01-27 03:16:00,22.9,19.1,30.46,SSE,160,1.0,5.0,85,0.00,,---,0.00,VWS V14.01,2013-01-27 08:16:00,
2013-01-27 03:31:00,23.0,18.9,30.46,South,181,3.0,7.0,84,0.00,,---,0.00,VWS V14.01,2013-01-27 08:31:00,
2013-01-27 03:46:00,23.1,18.7,30.45,SSE,167,2.0,8.0,83,0.00,,---,0.00,VWS V14.01,2013-01-27 08:46:00,
2013-01-27 04:01:00,23.2,18.5,30.45,SE,146,4.0,7.0,82,0.00,,---,0.00,VWS V14.01,2013-01-27 09:01:00,
2013-01-27 04:16:00,23.3,18.3,30.45,South,174,2.0,8.0,81,0.00,,---,0.00,VWS V14.01,2013-01-27 09:16:00,
2013-01-27 04:31:00,23.2,18.2,30.46,SSW,196,5.0,6.0,81,0.00,,---,0.00,VWS V14.01,2013-01-27 09:31:00,
2013-01-27 04:46:00,23.2,18.0,30.46,SSE,154,4.0,7.0,80,0.00,,---,0.00,VWS V14.01,2013-01-27 09:46:00,
2013-01-27 05:01:00,23.2,18.0,30.45,SE,132,4.0,6.0,80,0.00,,---,0.00,VWS V14.01,2013-01-27 10:01:00,
2013-01-27 05:16:00,22.8,17.6,30.45,SE,145,3.0,7.0,80,0.00,,---,0.00,VWS V14.01,2013-01-27 10:16:00,
2013-01-27 05:31:00,22.7,17.5,30.46,SE,142,2.0,5.0,80,0.00,,---,0.00,VWS V14.01,2013-01-27 10:31:00,
2013-01-27 05:46:00,22.4,17.2,30.45,SSE,159,1.0,5.0,80,0.00,,---,0.00,VWS V14.01,2013-01-27 10:46:00,
2013-01-27 06:01:00,22.3,17.1,30.45,SSE,159,3.0,7.0,80,0.00,,---,0.00,VWS V14.01,2013-01-27 11:01:00,
2013-01-27 06:16:00,22.1,16.9,30.44,SSE,148,2.0,7.0,80,0.00,,---,0.00,VWS V14.01,2013-01-27 11:16:00,
2013-01-27 06:31:00,21.8,16.6,30.44,SSE,147,3.0,9.0,80,0.00,,---,0.00,VWS V14.01,2013-01-27 11:31:00,
2013-01-27 06:46:00,21.6,16.7,30.44,SSE,163,3.0,6.0,81,0.00,,---,0.00,VWS V14.01,2013-01-27 11:46:00,
2013-01-27 07:01:00,21.5,16.6,30.43,SE,137,3.0,7.0,81,0.00,,---,0.00,VWS V14.01,2013-01-27 12:01:00,
2013-01-27 07:16:00,21.4,16.5,30.43,SSE,155,2.0,10.0,81,0.00,,---,0.00,VWS V14.01,2013-01-27 12:16:00,
2013-01-27 07:31:00,21.5,16.6,30.43,SE,140,6.0,9.0,81,0.00,,---,0.00,VWS V14.01,2013-01-27 12:31:00,
2013-01-27 07:46:00,21.5,16.6,30.43,SSE,150,3.0,7.0,81,0.00,,---,0.00,VWS V14.01,2013-01-27 12:46:00,
2013-01-27 08:01:00,21.7,16.8,30.44,SE,142,5.0,10.0,81,0.00,,---,0.00,VWS V14.01,2013-01-27 13:01:00,
2013-01-27 08:16:00,21.9,17.0,30.43,SSE,158,4.0,12.0,81,0.00,,---,0.00,VWS V14.01,2013-01-27 13:16:00,
2013-01-27 08:31:00,22.1,17.2,30.43,SE,124,7.0,9.0,81,0.00,,---,0.00,VWS V14.01,2013-01-27 13:31:00,
2013-01-27 08:46:00,22.3,17.6,30.43,SSE,152,3.0,10.0,82,0.00,,---,0.00,VWS V14.01,2013-01-27 13:46:00,
2013-01-27 09:01:00,22.5,17.9,30.43,SE,128,8.0,11.0,82,0.00,,---,0.00,VWS V14.01,2013-01-27 14:01:00,
2013-01-27 09:16:00,22.8,17.9,30.42,ESE,103,3.0,12.0,81,0.00,,---,0.00,VWS V14.01,2013-01-27 14:16:00,
2013-01-27 09:31:00,23.0,18.0,30.42,SSE,154,5.0,13.0,81,0.00,,---,0.00,VWS V14.01,2013-01-27 14:31:00,
2013-01-27 09:46:00,23.3,18.3,30.43,SE,134,6.0,12.0,81,0.00,,---,0.00,VWS V14.01,2013-01-27 14:46:00,
2013-01-27 10:01:00,23.6,18.6,30.43,SSE,154,5.0,13.0,81,0.00,,---,0.00,VWS V14.01,2013-01-27 15:01:00,
2013-01-27 10:16:00,23.9,18.6,30.44,SE,146,4.0,12.0,80,0.00,,---,0.00,VWS V14.01,2013-01-27 15:16:00,
2013-01-27 10:31:00,24.2,18.9,30.44,SE,144,2.0,11.0,80,0.00,,---,0.00,VWS V14.01,2013-01-27 15:31:00,
2013-01-27 10:46:00,24.5,19.2,30.43,SSE,159,5.0,8.0,80,0.00,,---,0.00,VWS V14.01,2013-01-27 15:46:00,
2013-01-27 11:01:00,24.8,19.2,30.43,ESE,117,4.0,14.0,79,0.00,,---,0.00,VWS V14.01,2013-01-27 16:01:00,
2013-01-27 11:16:00,25.1,19.5,30.44,South,186,4.0,12.0,79,0.00,,---,0.00,VWS V14.01,2013-01-27 16:16:00,
2013-01-27 14:45:00,28.6,22.0,30.29,ESE,112,6.0,14.0,76,0.00,,---,0.00,VWS V14.01,2013-01-27 19:45:00,
2013-01-27 15:01:00,28.7,22.1,30.30,SE,146,4.0,6.0,76,0.00,,---,0.00,VWS V14.01,2013-01-27 20:01:00,
2013-01-27 15:16:00,28.9,22.3,30.29,SE,144,7.0,13.0,76,0.00,,---,0.00,VWS V14.01,2013-01-27 20:16:00,
2013-01-27 15:31:00,29.1,22.5,30.30,ESE,123,5.0,13.0,76,0.00,,---,0.00,VWS V14.01,2013-01-27 20:31:00,
2013-01-27 15:46:00,29.1,22.8,30.28,ESE,105,7.0,10.0,77,0.00,,---,0.00,VWS V14.01,2013-01-27 20:46:00,
2013-01-27 16:01:00,29.1,22.8,30.27,ESE,113,5.0,11.0,77,0.00,,---,0.00,VWS V14.01,2013-01-27 21:01:00,
2013-01-27 16:16:00,29.2,23.2,30.25,ESE,115,5.0,15.0,78,0.00,,---,0.00,VWS V14.01,2013-01-27 21:16:00,
2013-01-27 16:31:00,29.5,23.2,30.25,ENE,69,5.0,14.0,77,0.00,,---,0.00,VWS V14.01,2013-01-27 21:31:00,
2013-01-27 16:46:00,29.7,23.4,30.26,SE,132,2.0,13.0,77,0.00,,---,0.00,VWS V14.01,2013-01-27 21:46:00,
2013-01-27 17:01:00,29.7,23.4,30.26,ESE,107,4.0,10.0,77,0.00,,---,0.00,VWS V14.01,2013-01-27 22:01:00,
2013-01-27 17:16:00,29.9,23.3,30.26,SE,134,6.0,13.0,76,0.00,,---,0.00,VWS V14.01,2013-01-27 22:16:00,
2013-01-27 17:31:00,29.8,23.5,30.26,ESE,107,7.0,13.0,77,0.00,,---,0.00,VWS V14.01,2013-01-27 22:31:00,
2013-01-27 17:46:00,29.7,23.4,30.27,ESE,120,3.0,9.0,77,0.00,,---,0.00,VWS V14.01,2013-01-27 22:46:00,
2013-01-27 18:01:00,29.4,24.0,30.26,SE,134,5.0,14.0,80,0.00,,---,0.00,VWS V14.01,2013-01-27 23:01:00,
2013-01-27 18:16:00,29.0,24.2,30.25,SE,133,6.0,18.0,82,0.00,,---,0.00,VWS V14.01,2013-01-27 23:16:00,
2013-01-27 18:31:00,29.2,25.0,30.24,East,98,9.0,15.0,84,0.00,,---,0.00,VWS V14.01,2013-01-27 23:31:00,
2013-01-27 18:46:00,29.3,25.4,30.25,East,92,7.0,15.0,85,0.00,,---,0.00,VWS V14.01,2013-01-27 23:46:00,
2013-01-27 19:01:00,29.4,25.7,30.23,ESE,107,7.0,15.0,86,0.00,,---,0.00,VWS V14.01,2013-01-28 00:01:00,
2013-01-27 19:16:00,29.3,26.2,30.19,SE,135,7.0,18.0,88,0.00,,---,0.00,VWS V14.01,2013-01-28 00:16:00,
2013-01-27 19:31:00,29.4,26.3,30.17,SSE,158,8.0,21.0,88,0.00,,---,0.00,VWS V14.01,2013-01-28 00:31:00,
2013-01-27 19:46:00,29.5,26.4,30.15,SE,132,13.0,25.0,88,0.00,,---,0.00,VWS V14.01,2013-01-28 00:46:00,
2013-01-27 20:01:00,29.8,27.0,30.15,South,184,10.0,21.0,89,0.00,,---,0.00,VWS V14.01,2013-01-28 01:01:00,
2013-01-27 20:16:00,30.1,27.3,30.13,South,171,7.0,20.0,89,0.00,,---,0.00,VWS V14.01,2013-01-28 01:16:00,
2013-01-27 20:31:00,30.4,27.5,30.13,ESE,120,7.0,21.0,89,0.00,,---,0.00,VWS V14.01,2013-01-28 01:31:00,
2013-01-27 20:46:00,30.8,28.0,30.13,SE,126,8.0,16.0,89,0.00,,---,0.00,VWS V14.01,2013-01-28 01:46:00,
2013-01-27 21:01:00,31.1,28.2,30.13,SSE,156,7.0,17.0,89,0.00,,---,0.00,VWS V14.01,2013-01-28 02:01:00,
2013-01-27 21:16:00,31.3,28.4,30.11,SSE,152,7.0,16.0,89,0.00,,---,0.00,VWS V14.01,2013-01-28 02:16:00,
2013-01-27 21:31:00,31.6,28.7,30.11,SE,130,7.0,18.0,89,0.00,,---,0.00,VWS V14.01,2013-01-28 02:31:00,
2013-01-27 21:46:00,31.9,29.3,30.09,SSW,199,5.0,22.0,90,0.00,,---,0.00,VWS V14.01,2013-01-28 02:46:00,
2013-01-27 22:01:00,31.8,29.2,30.09,SSE,168,7.0,16.0,90,0.00,,---,0.00,VWS V14.01,2013-01-28 03:01:00,
2013-01-27 22:16:00,32.0,29.7,30.08,ESE,103,5.0,14.0,91,0.00,,---,0.00,VWS V14.01,2013-01-28 03:16:00,
2013-01-27 22:31:00,32.2,29.9,30.09,SSE,163,9.0,15.0,91,0.00,,---,0.00,VWS V14.01,2013-01-28 03:31:00,
2013-01-27 22:46:00,32.3,30.2,30.08,SSE,161,3.0,11.0,92,0.00,,---,0.00,VWS V14.01,2013-01-28 03:46:00,
2013-01-27 23:01:00,32.4,30.3,30.07,SE,146,3.0,13.0,92,0.00,,---,0.00,VWS V14.01,2013-01-28 04:01:00,
2013-01-27 23:16:00,32.5,30.7,30.07,SSE,163,9.0,14.0,93,0.00,,---,0.00,VWS V14.01,2013-01-28 04:16:00,
2013-01-27 23:31:00,32.9,31.1,30.06,SE,132,7.0,13.0,93,0.00,,---,0.00,VWS V14.01,2013-01-28 04:31:00,
2013-01-27 23:46:00,33.1,31.3,30.07,SE,128,5.0,13.0,93,0.00,,---,0.00,VWS V14.01,2013-01-28 04:46:00,